Time;durP1;ratioP1;P1;durP2;ratioP2;P2;SDS_P1;SDS_P2;PMS_P1;PMS_P2;Temp;Humidity;BMP_temperature;BMP_pressure;BME280_temperature;BME280_humidity;BME280_pressure;Samples;Min_cycle;Max_cycle;Signal;HPM_P1;HPM_P2
2021/03/26 00:03:14;;;;;;;8.67;6.00;;;;;;;3.18;71.65;99907.66;5085254;23;20207;-78
2021/03/26 00:07:09;;;;;;;8.90;5.73;;;;;;;3.10;71.70;99908.50;5107415;22;20224;-78
2021/03/26 00:11:12;;;;;;;8.80;5.63;;;;;;;3.10;71.78;99919.06;5266070;22;20221;-77
2021/03/26 00:15:03;;;;;;;7.87;5.77;;;;;;;3.05;71.86;99910.81;5033939;28;20194;-80
2021/03/26 00:18:55;;;;;;;8.30;5.53;;;;;;;3.11;72.10;99919.91;5086508;23;20305;-78
2021/03/26 00:22:37;;;;;;;8.57;5.37;;;;;;;2.99;72.78;99902.69;5122410;22;20235;-79
2021/03/26 00:30:20;;;;;;;7.73;5.50;;;;;;;2.82;73.14;99923.00;5082203;28;20231;-79
2021/03/26 00:34:06;;;;;;;9.17;5.63;;;;;;;2.38;73.21;99885.38;5158807;22;20208;-79
2021/03/26 00:42:11;;;;;;;8.37;5.93;;;;;;;2.31;74.56;99891.47;5229181;22;20239;-79
2021/03/26 00:46:34;;;;;;;6.17;5.17;;;;;;;2.40;75.23;99909.00;5167665;22;20318;-79
2021/03/26 00:50:19;;;;;;;9.10;5.40;;;;;;;2.40;75.44;99909.84;5207979;22;20257;-79
2021/03/26 00:54:01;;;;;;;9.77;6.17;;;;;;;2.38;75.14;99914.44;5120077;28;20207;-79
2021/03/26 01:02:26;;;;;;;8.20;5.97;;;;;;;2.14;76.40;99911.75;4950981;23;20186;-78
2021/03/26 01:06:20;;;;;;;7.17;5.77;;;;;;;2.05;76.98;99921.44;5378643;22;20235;-78
2021/03/26 01:14:04;;;;;;;8.00;5.70;;;;;;;1.96;77.19;99914.44;5090189;22;20243;-80
2021/03/26 01:17:57;;;;;;;9.87;5.83;;;;;;;1.87;77.59;99904.03;5101867;22;20217;-81
2021/03/26 01:22:12;;;;;;;8.07;5.80;;;;;;;1.90;77.22;99907.16;5077071;28;20550;-79
2021/03/26 01:25:54;;;;;;;9.10;6.27;;;;;;;1.94;76.94;99908.50;5099503;22;20229;-79
2021/03/26 01:29:35;;;;;;;8.40;5.53;;;;;;;1.95;77.11;99904.06;5122857;22;20204;-79
2021/03/26 01:32:51;;;;;;;7.37;5.30;;;;;;;1.99;77.46;99908.03;5111886;22;20224;-80
2021/03/26 01:37:02;;;;;;;7.30;5.50;;;;;;;1.95;77.83;99909.34;5129969;22;20295;-79
2021/03/26 01:41:21;;;;;;;8.37;5.70;;;;;;;1.93;77.66;99908.66;5042587;28;20242;-79
2021/03/26 01:49:12;;;;;;;6.97;5.50;;;;;;;2.05;76.98;99926.72;5117385;28;20275;-79
2021/03/26 01:53:04;;;;;;;7.90;5.90;;;;;;;1.98;77.43;99906.38;5212313;22;20223;-80
2021/03/26 01:56:42;;;;;;;8.40;5.50;;;;;;;1.46;78.01;99832.47;5276694;22;20235;-80
2021/03/26 02:00:58;;;;;;;8.40;5.80;;;;;;;1.94;78.36;99905.88;5199992;22;20261;-80
2021/03/26 02:05:01;;;;;;;7.13;5.43;;;;;;;1.91;78.80;99911.47;5144539;22;21174;-79
2021/03/26 02:08:37;;;;;;;9.63;5.40;;;;;;;1.63;78.26;99860.59;5215194;22;20246;-80
2021/03/26 02:13:09;;;;;;;7.57;5.63;;;;;;;1.93;77.93;99903.38;5267442;22;20211;-79
2021/03/26 02:16:53;;;;;;;7.30;5.50;;;;;;;1.88;77.82;99903.84;5052007;22;20398;-78
2021/03/26 02:20:57;;;;;;;7.10;5.37;;;;;;;1.89;78.32;99902.88;5118745;22;20236;-78
2021/03/26 02:29:44;;;;;;;6.93;5.33;;;;;;;1.95;78.25;99904.06;5095635;28;20221;-78
2021/03/26 02:33:33;;;;;;;7.40;5.20;;;;;;;1.97;79.08;99910.00;5033415;28;20210;-78
2021/03/26 02:37:30;;;;;;;11.40;5.70;;;;;;;1.81;78.64;99905.47;5042928;23;20226;-78
2021/03/26 02:41:37;;;;;;;7.57;5.20;;;;;;;1.84;79.29;99925.44;5190635;22;20242;-81
2021/03/26 02:45:53;;;;;;;7.73;5.67;;;;;;;1.83;79.86;99927.25;5104175;22;20319;-80
2021/03/26 02:49:39;;;;;;;7.23;5.40;;;;;;;1.82;79.83;99924.78;5097774;28;20216;-80
2021/03/26 02:53:52;;;;;;;9.40;5.77;;;;;;;1.75;79.54;99940.44;5354488;22;20240;-78
2021/03/26 02:57:46;;;;;;;7.07;6.13;;;;;;;1.74;79.59;99944.03;5032904;28;20230;-81
2021/03/26 03:01:41;;;;;;;8.07;5.97;;;;;;;1.73;79.44;99945.84;5023690;28;20269;-79
2021/03/26 03:05:16;;;;;;;8.63;5.87;;;;;;;1.50;80.35;99928.03;5045941;23;20235;-80
2021/03/26 03:08:54;;;;;;;8.43;6.10;;;;;;;1.75;80.17;99946.53;5113739;28;20249;-80
2021/03/26 03:12:58;;;;;;;9.73;6.17;;;;;;;1.75;80.24;99946.53;4540036;22;17471705;-79
2021/03/26 03:16:38;;;;;;;8.70;6.03;;;;;;;1.75;79.84;99943.91;5114683;28;20491;-80
2021/03/26 03:20:26;;;;;;;8.10;5.93;;;;;;;1.75;79.90;99951.81;5114547;28;20187;-80
2021/03/26 03:28:11;;;;;;;8.73;6.00;;;;;;;1.62;80.63;99940.03;5002694;28;20208;-80
2021/03/26 03:36:15;;;;;;;8.70;5.47;;;;;;;1.51;80.52;99930.53;5040512;23;20241;-79
2021/03/26 03:40:25;;;;;;;8.03;5.30;;;;;;;1.66;80.11;99954.56;5062711;22;20229;-79
2021/03/26 03:44:26;;;;;;;8.50;6.10;;;;;;;1.67;81.33;99956.22;5154039;22;20222;-79
2021/03/26 03:48:26;;;;;;;9.60;7.40;;;;;;;1.71;80.54;99963.69;5050231;23;20238;-77
2021/03/26 03:52:23;;;;;;;10.00;7.67;;;;;;;1.74;80.41;99967.81;5016710;23;20253;-79
2021/03/26 03:59:09;;;;;;;8.17;6.07;;;;;;;1.67;80.36;99962.34;5044287;22;20261;-79
2021/03/26 04:03:18;;;;;;;9.37;6.53;;;;;;;1.72;81.46;99973.28;5036479;23;20310;-79
2021/03/26 04:07:16;;;;;;;10.07;7.10;;;;;;;1.73;80.47;99969.63;5032283;28;20249;-79
2021/03/26 04:10:50;;;;;;;9.20;7.00;;;;;;;1.70;80.70;99977.88;5014874;28;20261;-79
2021/03/26 04:14:53;;;;;;;;;;;;;;;;;;;;;
2021/03/26 04:18:40;;;;;;;9.30;6.27;;;;;;;1.57;81.49;99982.75;5101888;22;20226;-79
2021/03/26 04:23:10;;;;;;;9.83;7.00;;;;;;;1.49;81.46;99976.56;5046210;28;20233;-79
2021/03/26 04:26:58;;;;;;;9.50;6.90;;;;;;;1.33;81.89;99962.25;5063316;23;20231;-78
2021/03/26 04:30:43;;;;;;;13.70;7.23;;;;;;;1.11;81.84;99941.59;5061986;22;20222;-79
2021/03/26 04:34:26;;;;;;;10.67;7.30;;;;;;;1.18;82.12;99952.38;5013015;22;20230;-78
2021/03/26 04:38:10;;;;;;;8.97;6.53;;;;;;;1.32;82.29;99988.78;5015967;28;20190;-79
2021/03/26 04:42:31;;;;;;;8.77;6.33;;;;;;;1.28;82.42;99982.16;5029516;23;20234;-78
2021/03/26 04:45:57;;;;;;;8.83;5.93;;;;;;;1.21;82.86;99986.41;5016212;23;20266;-79
2021/03/26 04:50:06;;;;;;;9.30;6.10;;;;;;;1.18;82.83;99995.44;5116073;23;20211;-78
2021/03/26 04:54:20;;;;;;;7.60;6.07;;;;;;;1.19;83.68;99994.44;5038159;23;20219;-78
2021/03/26 04:58:26;;;;;;;7.73;5.80;;;;;;;1.05;82.87;99973.88;5136354;23;20248;-79
2021/03/26 05:02:30;;;;;;;7.53;5.70;;;;;;;1.20;82.79;99990.00;5058676;28;20208;-78
2021/03/26 05:06:29;;;;;;;9.67;6.00;;;;;;;1.06;82.64;99967.63;4977497;28;20234;-78
2021/03/26 05:14:53;;;;;;;8.70;5.80;;;;;;;1.06;82.34;99985.25;5064609;23;20222;-78
2021/03/26 05:19:12;;;;;;;7.77;5.67;;;;;;;0.92;81.79;99947.03;5063438;22;20218;-79
2021/03/26 05:23:07;;;;;;;7.33;5.67;;;;;;;1.37;82.12;100007.66;5023685;28;20202;-78
2021/03/26 05:27:02;;;;;;;8.40;5.97;;;;;;;1.38;81.68;100005.84;5050629;22;20260;-79
2021/03/26 05:30:56;;;;;;;8.67;5.67;;;;;;;1.60;80.98;100021.19;5082549;22;20221;-79
2021/03/26 05:34:59;;;;;;;8.67;5.47;;;;;;;1.66;80.24;100000.31;5076263;28;20217;-78
2021/03/26 05:38:58;;;;;;;10.70;6.23;;;;;;;1.90;80.13;100022.59;5070765;22;20273;-79
2021/03/26 05:42:56;;;;;;;9.70;5.93;;;;;;;1.93;79.91;100019.63;5056899;22;20224;-78
2021/03/26 05:46:53;;;;;;;8.20;6.10;;;;;;;2.17;79.43;100022.44;5056040;28;20198;-78
2021/03/26 05:50:59;;;;;;;10.23;6.47;;;;;;;2.42;79.62;100029.53;5049720;28;20226;-79
2021/03/26 05:54:24;;;;;;;9.93;7.03;;;;;;;2.65;78.71;100032.44;5064424;23;20222;-78
2021/03/26 05:58:09;;;;;;;9.03;6.63;;;;;;;2.84;78.27;100041.94;5044088;22;20779;-78
2021/03/26 06:01:43;;;;;;;8.23;6.33;;;;;;;3.12;77.96;100038.06;5040294;23;20301;-78
2021/03/26 06:05:42;;;;;;;9.57;6.10;;;;;;;3.35;76.50;100041.75;5031368;28;20317;-78
2021/03/26 06:09:30;;;;;;;8.77;5.73;;;;;;;3.62;74.81;100048.56;5160213;22;20249;-78
2021/03/26 06:13:22;;;;;;;8.50;5.80;;;;;;;3.92;74.19;100057.66;5074659;22;20224;-79
2021/03/26 06:17:08;;;;;;;10.07;7.20;;;;;;;4.15;72.51;100057.81;5057604;22;20281;-78
2021/03/26 06:21:09;;;;;;;10.03;8.03;;;;;;;4.38;72.16;100054.31;5030170;28;20222;-79
2021/03/26 06:25:00;;;;;;;7.10;5.57;;;;;;;4.57;71.07;100061.06;5059216;22;20236;-79
2021/03/26 06:28:55;;;;;;;7.77;5.70;;;;;;;4.73;71.18;100046.88;5053531;28;20534;-79
2021/03/26 06:32:26;;;;;;;8.00;6.10;;;;;;;4.93;69.52;100042.81;4993233;28;20203;-78
2021/03/26 06:35:59;;;;;;;8.37;6.20;;;;;;;5.16;68.89;100056.16;4992744;22;20231;-79
2021/03/26 06:39:40;;;;;;;9.63;6.73;;;;;;;5.37;67.78;100056.34;5060369;22;20245;-79
2021/03/26 06:42:55;;;;;;;8.67;6.93;;;;;;;5.56;67.29;100057.72;5010627;28;20227;-78
2021/03/26 06:46:20;;;;;;;9.33;7.00;;;;;;;5.72;67.20;100054.94;5092202;22;20226;-78
2021/03/26 06:49:57;;;;;;;9.80;7.40;;;;;;;5.95;66.79;100057.59;5043660;22;20240;-78
2021/03/26 06:53:56;;;;;;;10.80;7.40;;;;;;;6.19;66.61;100060.88;5056102;23;20214;-78
2021/03/26 07:05:44;;;;;;;10.67;9.07;;;;;;;6.97;64.68;100059.50;5069141;22;20215;-80
2021/03/26 07:08:53;;;;;;;12.37;8.90;;;;;;;7.17;62.96;100062.44;5026359;28;20641;-78
2021/03/26 07:12:21;;;;;;;11.50;8.60;;;;;;;7.33;62.48;100059.53;5030434;28;20250;-80
2021/03/26 07:15:53;;;;;;;13.43;9.40;;;;;;;7.46;61.99;100052.53;5023267;28;20230;-79
2021/03/26 07:19:13;;;;;;;13.63;9.03;;;;;;;7.78;63.04;100064.53;5030381;28;20202;-80
2021/03/26 07:22:47;;;;;;;11.57;9.07;;;;;;;7.94;61.82;100053.56;5029314;28;20504;-80
2021/03/26 07:26:17;;;;;;;12.33;9.07;;;;;;;8.22;61.05;100072.28;5023163;28;20220;-79
2021/03/26 07:29:59;;;;;;;12.43;8.47;;;;;;;8.56;61.16;100060.84;5042021;28;20221;-80
2021/03/26 07:34:39;;;;;;;12.97;8.87;;;;;;;8.68;60.55;100027.22;5050854;23;20256;-80
2021/03/26 07:38:33;;;;;;;12.70;8.93;;;;;;;9.16;59.47;100067.31;5469886;23;20639;-81
2021/03/26 07:46:29;;;;;;;12.90;8.60;;;;;;;9.65;58.71;100064.38;5137976;22;20264;-79
2021/03/26 07:54:33;;;;;;;11.70;8.43;;;;;;;10.14;58.17;100070.19;5125728;23;20231;-79
2021/03/26 07:58:51;;;;;;;12.43;10.10;;;;;;;10.45;56.72;100068.78;5044072;22;20250;-80
2021/03/26 08:02:56;;;;;;;13.63;7.80;;;;;;;10.67;55.92;100059.47;5036355;28;20219;-80
2021/03/26 08:05:53;;;;;;;10.87;7.20;;;;;;;10.82;55.22;100062.72;5143570;22;20253;-80
2021/03/26 08:09:56;;;;;;;12.27;7.80;;;;;;;11.03;54.50;100058.94;5023730;28;20222;-79
2021/03/26 08:13:04;;;;;;;13.03;8.03;;;;;;;11.30;54.44;100065.81;4979352;28;20196;-79
2021/03/26 08:17:13;;;;;;;12.40;8.33;;;;;;;11.54;52.71;100063.44;4966050;29;20248;-79
2021/03/26 08:20:48;;;;;;;14.03;8.63;;;;;;;11.66;52.02;100056.34;5179747;22;20226;-79
2021/03/26 08:24:12;;;;;;;12.77;8.13;;;;;;;11.96;50.87;100067.31;5035935;28;20233;-79
2021/03/26 08:32:04;;;;;;;12.83;9.13;;;;;;;12.32;48.83;100070.13;5035551;28;20218;-79
2021/03/26 08:36:24;;;;;;;15.07;9.20;;;;;;;12.54;48.63;100079.44;5036727;28;20194;-78
2021/03/26 08:39:56;;;;;;;11.90;9.50;;;;;;;12.47;47.32;100043.72;5245484;22;20241;-79
2021/03/26 08:47:00;;;;;;;15.40;9.73;;;;;;;12.95;46.04;100067.22;4947637;23;20225;-78
2021/03/26 08:51:05;;;;;;;13.27;9.93;;;;;;;13.10;45.49;100068.50;4932011;29;20226;-78
2021/03/26 08:54:28;;;;;;;13.50;10.10;;;;;;;13.21;44.52;100075.00;4947662;23;20226;-78
2021/03/26 08:58:13;;;;;;;14.10;10.53;;;;;;;13.50;44.24;100073.38;4936311;29;20226;-78
2021/03/26 09:02:05;;;;;;;12.57;9.70;;;;;;;13.62;44.44;100066.19;4943038;23;20256;-79
2021/03/26 09:05:54;;;;;;;14.60;10.37;;;;;;;13.85;44.36;100068.97;5282402;23;20296;-78
2021/03/26 09:09:20;;;;;;;12.97;10.50;;;;;;;13.99;43.31;100058.81;4948884;29;20200;-78
2021/03/26 09:12:34;;;;;;;14.37;10.20;;;;;;;14.10;43.48;100063.38;5045924;23;20264;-81
2021/03/26 09:16:04;;;;;;;13.80;10.63;;;;;;;14.11;42.62;100062.34;4881397;29;20244;-80
2021/03/26 09:19:19;;;;;;;14.50;10.33;;;;;;;14.33;42.59;100058.00;4904569;23;20236;-79
2021/03/26 09:22:20;;;;;;;14.43;9.73;;;;;;;14.39;42.21;100042.81;4928183;23;20227;-78
2021/03/26 09:26:05;;;;;;;15.47;10.47;;;;;;;14.52;41.71;100062.28;4949746;23;20233;-78
2021/03/26 09:29:06;;;;;;;17.30;10.63;;;;;;;14.64;41.76;100051.50;4945496;29;20179;-78
2021/03/26 09:32:35;;;;;;;14.57;10.20;;;;;;;14.85;41.57;100050.06;4941271;29;20235;-77
2021/03/26 09:35:35;;;;;;;15.97;10.33;;;;;;;15.05;41.69;100065.84;4941247;23;20234;-77
2021/03/26 09:38:43;;;;;;;14.60;10.10;;;;;;;15.02;41.17;100031.25;4932717;29;20237;-77
2021/03/26 09:42:36;;;;;;;15.80;10.37;;;;;;;15.27;41.36;100045.25;5026397;23;20231;-80
2021/03/26 09:46:26;;;;;;;17.27;11.10;;;;;;;15.50;41.45;100049.75;4932429;29;20247;-79
2021/03/26 09:49:39;;;;;;;16.43;10.80;;;;;;;15.60;40.50;100033.75;4938200;29;20237;-83
2021/03/26 09:52:37;;;;;;;17.17;10.87;;;;;;;15.83;40.45;100052.53;4941755;29;20239;-84
2021/03/26 09:55:41;;;;;;;17.63;11.97;;;;;;;15.99;40.17;100054.47;4927875;29;20648;-85
2021/03/26 09:58:46;;;;;;;20.80;12.43;;;;;;;16.11;39.54;100054.38;4938701;29;20625;-83
2021/03/26 10:01:28;;;;;;;19.43;12.47;;;;;;;16.14;38.47;100037.69;4908468;29;20229;-80
2021/03/26 10:04:13;;;;;;;16.73;11.97;;;;;;;16.25;39.13;100042.16;4900576;29;20323;-82
2021/03/26 10:07:29;;;;;;;19.33;13.03;;;;;;;16.33;38.96;100054.47;4907163;29;20228;-86
2021/03/26 10:13:18;;;;;;;20.07;14.10;;;;;;;16.44;38.12;100027.31;4906714;29;20233;-85
2021/03/26 10:16:06;;;;;;;22.37;15.47;;;;;;;16.62;37.11;100021.66;4906792;29;20233;-85
2021/03/26 10:18:45;;;;;;;24.80;16.40;;;;;;;16.69;36.93;100029.59;4922685;29;20312;-85
2021/03/26 10:21:22;;;;;;;28.07;17.63;;;;;;;16.82;36.76;100025.72;4921049;29;20249;-84
2021/03/26 10:24:06;;;;;;;24.47;16.97;;;;;;;16.91;36.86;100033.16;4907415;29;20268;-85
2021/03/26 10:26:59;;;;;;;29.30;17.60;;;;;;;16.92;36.03;100012.31;4906364;29;20269;-85
2021/03/26 10:30:15;;;;;;;28.47;18.50;;;;;;;17.01;36.60;100019.75;4921969;29;20285;-86
2021/03/26 10:32:49;;;;;;;28.70;19.43;;;;;;;17.11;36.61;100006.34;4878685;29;20235;-86
2021/03/26 10:35:29;;;;;;;31.07;20.17;;;;;;;17.40;36.02;100025.06;4906501;29;20288;-86
2021/03/26 10:38:21;;;;;;;29.90;19.73;;;;;;;17.13;35.81;100000.66;4920296;29;20527;-86
2021/03/26 10:41:04;;;;;;;29.33;19.80;;;;;;;17.17;35.41;99980.94;4891083;29;20235;-85
2021/03/26 10:43:44;;;;;;;29.10;19.77;;;;;;;17.35;35.96;99990.63;4927720;29;20230;-85
2021/03/26 10:46:23;;;;;;;28.10;19.30;;;;;;;17.65;35.32;100005.56;4917500;29;20237;-86
2021/03/26 10:49:15;;;;;;;32.57;19.50;;;;;;;17.78;35.29;100007.84;4886310;29;20279;-86
2021/03/26 10:51:57;;;;;;;30.67;18.50;;;;;;;17.81;34.90;99982.97;4902268;29;20222;-83
2021/03/26 10:54:30;;;;;;;31.13;19.93;;;;;;;17.89;35.05;99994.13;4907751;29;20242;-84
2021/03/26 10:57:57;;;;;;;31.73;19.57;;;;;;;18.01;34.69;99974.97;4917758;29;20241;-83
2021/03/26 11:00:37;;;;;;;28.37;18.90;;;;;;;17.93;34.80;99989.00;4880120;29;20231;-85
2021/03/26 11:03:20;;;;;;;32.77;19.57;;;;;;;17.93;34.47;99968.16;4913928;29;20231;-85
2021/03/26 11:06:00;;;;;;;29.00;19.97;;;;;;;18.15;33.94;99975.38;4902896;29;20237;-86
2021/03/26 11:08:35;;;;;;;30.47;20.17;;;;;;;18.21;33.62;99975.13;4902289;29;20239;-81
2021/03/26 11:11:11;;;;;;;34.23;20.47;;;;;;;18.23;33.64;99974.88;4898062;29;20276;-80
2021/03/26 11:14:00;;;;;;;29.30;18.90;;;;;;;18.25;32.91;99968.09;4913909;29;20242;-79
2021/03/26 11:17:04;;;;;;;29.20;18.53;;;;;;;18.43;34.44;99962.25;4900193;29;20306;-85
2021/03/26 11:19:42;;;;;;;30.30;19.23;;;;;;;18.40;33.22;99957.34;4917482;29;20228;-78
2021/03/26 11:22:21;;;;;;;28.40;17.83;;;;;;;18.42;33.69;99949.78;4917206;29;20713;-85
2021/03/26 11:25:06;;;;;;;35.27;19.53;;;;;;;18.69;33.05;99955.09;4887709;29;20239;-86
2021/03/26 11:27:50;;;;;;;29.30;17.73;;;;;;;18.62;31.93;99953.69;4906999;29;20230;-84
2021/03/26 11:30:52;;;;;;;28.10;17.70;;;;;;;18.47;32.51;99949.81;4890050;29;20231;-84
2021/03/26 11:33:59;;;;;;;24.60;16.77;;;;;;;18.31;32.80;99934.50;4889130;29;20241;-84
2021/03/26 11:36:52;;;;;;;24.27;17.03;;;;;;;18.56;32.34;99933.06;4915542;29;20222;-83
2021/03/26 11:39:33;;;;;;;27.43;17.80;;;;;;;18.71;32.64;99938.56;4890510;29;20304;-84
2021/03/26 11:42:08;;;;;;;23.13;16.13;;;;;;;18.84;32.17;99941.59;4901728;29;20329;-84
2021/03/26 11:45:28;;;;;;;25.77;15.43;;;;;;;18.92;31.40;99923.97;4917740;29;20226;-83
2021/03/26 11:48:13;;;;;;;26.33;16.83;;;;;;;18.91;32.00;99925.03;4910037;29;20222;-83
2021/03/26 11:51:00;;;;;;;26.37;16.50;;;;;;;18.82;32.38;99919.31;4919132;29;20214;-84
2021/03/26 11:53:38;;;;;;;26.23;17.13;;;;;;;18.93;31.86;99909.31;4918082;29;20230;-82
2021/03/26 11:56:31;;;;;;;26.53;17.37;;;;;;;19.14;31.42;99910.16;4917470;29;20305;-85
2021/03/26 11:59:22;;;;;;;24.83;16.27;;;;;;;19.32;30.50;99923.22;4919204;29;20324;-84
2021/03/26 12:02:25;;;;;;;24.03;15.20;;;;;;;19.36;30.20;99908.03;4919873;29;20222;-84
2021/03/26 12:05:50;;;;;;;23.80;15.33;;;;;;;19.17;31.06;99901.50;4907144;29;20234;-83
2021/03/26 12:08:57;;;;;;;23.60;14.73;;;;;;;19.59;31.27;99907.53;4845017;29;20629;-80
2021/03/26 12:12:05;;;;;;;22.77;14.83;;;;;;;19.81;30.43;99898.28;4924011;29;20229;-84
2021/03/26 12:14:48;;;;;;;21.87;15.00;;;;;;;19.78;29.39;99894.22;4904906;29;20305;-84
2021/03/26 12:17:45;;;;;;;20.63;13.47;;;;;;;19.88;29.79;99894.16;4886473;29;20243;-84
2021/03/26 12:20:35;;;;;;;15.77;11.37;;;;;;;20.01;27.78;99890.91;4889662;29;20218;-85
2021/03/26 12:23:29;;;;;;;16.43;10.90;;;;;;;19.99;27.20;99890.34;4890514;29;20241;-85
2021/03/26 12:26:17;;;;;;;15.63;10.83;;;;;;;19.98;27.80;99866.16;4919444;29;20238;-84
2021/03/26 12:28:54;;;;;;;23.60;14.00;;;;;;;20.16;27.90;99879.97;4920304;29;20230;-82
2021/03/26 12:32:06;;;;;;;16.83;10.83;;;;;;;20.01;27.74;99866.44;4909872;29;20306;-84
2021/03/26 12:35:00;;;;;;;17.50;12.43;;;;;;;20.16;27.64;99865.56;4896286;29;20220;-83
2021/03/26 12:38:13;;;;;;;18.20;12.33;;;;;;;20.19;28.06;99865.03;4915936;29;20330;-82
2021/03/26 12:41:01;;;;;;;18.37;12.07;;;;;;;20.24;27.42;99854.13;4907975;29;20233;-84
2021/03/26 12:43:54;;;;;;;18.97;11.73;;;;;;;20.21;28.43;99847.31;4919317;29;20277;-84
2021/03/26 12:47:04;;;;;;;18.27;11.73;;;;;;;20.13;28.00;99845.19;4919462;29;20230;-84
2021/03/26 12:49:56;;;;;;;19.73;12.80;;;;;;;20.07;28.08;99835.41;4905485;29;20269;-85
2021/03/26 12:52:56;;;;;;;17.03;11.27;;;;;;;20.12;28.47;99837.28;4920459;29;20235;-79
2021/03/26 12:55:31;;;;;;;16.77;11.47;;;;;;;20.03;27.64;99828.88;4899376;29;20285;-80
2021/03/26 12:58:42;;;;;;;16.40;11.17;;;;;;;19.87;27.87;99824.59;4904481;29;20250;-84
2021/03/26 13:01:47;;;;;;;18.97;11.83;;;;;;;19.95;27.93;99815.88;4895072;29;20370;-84
2021/03/26 13:04:55;;;;;;;17.27;11.80;;;;;;;20.06;27.64;99816.66;4905893;29;20241;-82
2021/03/26 13:07:33;;;;;;;15.27;9.40;;;;;;;20.02;27.60;99810.94;4920128;29;20237;-84
2021/03/26 13:10:22;;;;;;;15.83;10.40;;;;;;;20.16;28.31;99811.16;4920345;29;20230;-85
2021/03/26 13:12:50;;;;;;;14.93;10.20;;;;;;;20.06;27.04;99803.06;4919430;29;20308;-82
2021/03/26 13:15:25;;;;;;;16.77;10.97;;;;;;;20.13;27.74;99809.00;4900759;29;20544;-85
2021/03/26 13:18:12;;;;;;;14.23;10.07;;;;;;;20.19;26.36;99813.34;4915104;29;20607;-84
2021/03/26 13:21:10;;;;;;;15.47;10.33;;;;;;;20.05;27.39;99804.97;4903843;29;20541;-84
2021/03/26 13:23:38;;;;;;;14.43;9.70;;;;;;;19.98;27.17;99795.44;4897144;29;20240;-84
2021/03/26 13:26:09;;;;;;;18.80;10.10;;;;;;;19.71;27.23;99779.50;4885715;29;20267;-83
2021/03/26 13:28:46;;;;;;;15.10;8.80;;;;;;;20.07;27.23;99802.75;4869934;29;20291;-81
2021/03/26 13:31:16;;;;;;;12.60;8.43;;;;;;;19.97;27.47;99770.16;4884906;29;20284;-85
2021/03/26 13:34:02;;;;;;;12.13;8.40;;;;;;;20.08;26.82;99787.25;4881737;29;20234;-84
2021/03/26 13:36:43;;;;;;;14.63;9.63;;;;;;;20.10;27.22;99790.53;4904938;29;20241;-84
2021/03/26 13:39:41;;;;;;;14.37;9.47;;;;;;;19.92;26.94;99772.09;4908416;29;20226;-81
2021/03/26 13:42:34;;;;;;;12.57;8.53;;;;;;;20.16;26.99;99773.06;4911944;29;20232;-83
2021/03/26 13:45:35;;;;;;;11.13;8.00;;;;;;;20.30;26.51;99779.56;4886151;29;20235;-81
2021/03/26 13:48:18;;;;;;;12.47;8.97;;;;;;;20.18;26.65;99760.03;4899901;29;20512;-85
2021/03/26 13:50:58;;;;;;;14.27;9.33;;;;;;;20.33;26.64;99772.78;4890126;29;20223;-83
2021/03/26 13:53:51;;;;;;;15.70;9.90;;;;;;;20.39;26.66;99766.22;4916909;29;20236;-84
2021/03/26 13:56:29;;;;;;;13.70;9.33;;;;;;;20.39;27.10;99768.94;4903020;29;20250;-84
2021/03/26 13:59:17;;;;;;;14.47;10.00;;;;;;;20.41;26.90;99748.50;4918827;29;20278;-84
2021/03/26 14:01:54;;;;;;;14.33;9.77;;;;;;;20.35;26.49;99762.41;4918502;29;20285;-79
2021/03/26 14:04:59;;;;;;;10.83;8.43;;;;;;;20.19;26.27;99762.47;4902994;29;20232;-82
2021/03/26 14:07:40;;;;;;;13.83;8.20;;;;;;;20.20;26.11;99761.34;4899859;29;20322;-84
2021/03/26 14:11:03;;;;;;;15.17;9.97;;;;;;;20.20;26.80;99755.91;4902249;29;20750;-79
2021/03/26 14:13:40;;;;;;;13.00;9.40;;;;;;;20.31;26.72;99751.28;4919432;29;20241;-84
2021/03/26 14:16:22;;;;;;;13.23;9.03;;;;;;;20.09;26.28;99748.91;4917931;29;20230;-81
2021/03/26 14:19:06;;;;;;;13.00;8.73;;;;;;;20.02;26.65;99753.81;4899905;29;20238;-84
2021/03/26 14:22:02;;;;;;;12.90;9.63;;;;;;;19.98;26.47;99736.44;4885952;29;20308;-84
2021/03/26 14:24:51;;;;;;;14.13;9.37;;;;;;;19.97;26.85;99742.19;4884550;29;20584;-82
2021/03/26 14:28:03;;;;;;;14.23;9.27;;;;;;;19.87;26.79;99747.66;4930335;29;20309;-85
2021/03/26 14:30:49;;;;;;;13.40;8.77;;;;;;;19.86;26.83;99737.84;4888857;29;20251;-83
2021/03/26 14:33:50;;;;;;;17.23;8.63;;;;;;;19.89;26.97;99746.25;4917935;29;20588;-80
2021/03/26 14:36:40;;;;;;;15.53;8.97;;;;;;;19.72;26.96;99724.88;4903055;28;20230;-85
2021/03/26 14:39:32;;;;;;;12.40;8.63;;;;;;;19.76;26.86;99736.81;4903851;29;20226;-80
2021/03/26 14:42:32;;;;;;;11.90;8.40;;;;;;;19.83;26.74;99728.34;4902187;29;20227;-84
2021/03/26 14:45:26;;;;;;;12.03;8.47;;;;;;;19.55;27.14;99731.72;4880667;29;20234;-85
2021/03/26 14:48:12;;;;;;;11.97;8.40;;;;;;;19.53;26.97;99720.28;4877780;29;20522;-84
2021/03/26 14:51:02;;;;;;;11.40;7.40;;;;;;;19.52;26.81;99708.59;4894001;29;20234;-85
2021/03/26 14:53:52;;;;;;;12.03;8.47;;;;;;;19.54;26.71;99711.06;4894843;29;20538;-82
2021/03/26 14:56:38;;;;;;;12.60;8.20;;;;;;;19.39;27.29;99684.72;4917516;29;20278;-84
2021/03/26 14:59:20;;;;;;;10.20;7.80;;;;;;;19.46;27.21;99708.88;4927744;29;20261;-85
2021/03/26 15:02:05;;;;;;;11.57;8.40;;;;;;;19.15;26.95;99702.69;4903081;29;20278;-84
2021/03/26 15:04:58;;;;;;;12.33;8.00;;;;;;;19.32;27.38;99701.28;4906683;29;20226;-83
2021/03/26 15:07:40;;;;;;;13.70;8.97;;;;;;;19.16;27.42;99688.00;4875864;29;20663;-83
2021/03/26 15:10:27;;;;;;;12.93;8.77;;;;;;;19.09;27.58;99687.47;4881906;29;20635;-85
2021/03/26 15:13:10;;;;;;;13.60;9.03;;;;;;;19.15;27.79;99711.63;4885729;29;20230;-84
2021/03/26 15:16:04;;;;;;;13.97;8.03;;;;;;;19.15;27.77;99706.22;4896677;29;20227;-85
2021/03/26 15:18:55;;;;;;;15.43;8.17;;;;;;;19.05;27.83;99706.22;4890396;29;20234;-85
2021/03/26 15:21:42;;;;;;;13.27;8.77;;;;;;;19.00;28.32;99703.50;4917506;29;20235;-83
2021/03/26 15:24:43;;;;;;;13.13;8.27;;;;;;;18.95;28.08;99708.13;4904352;29;20625;-84
2021/03/26 15:27:55;;;;;;;16.97;8.90;;;;;;;18.71;28.19;99692.38;4895792;29;20317;-84
2021/03/26 15:30:58;;;;;;;11.40;8.37;;;;;;;18.75;28.39;99701.63;4892261;29;20689;-85
2021/03/26 15:33:42;;;;;;;13.77;8.83;;;;;;;18.70;28.23;99695.38;4883828;29;20586;-84
2021/03/26 15:36:43;;;;;;;14.43;8.33;;;;;;;18.56;28.77;99694.28;4896090;29;20647;-81
2021/03/26 15:39:45;;;;;;;13.40;8.70;;;;;;;18.47;28.79;99693.97;4908069;29;20313;-83
2021/03/26 15:42:44;;;;;;;12.47;8.60;;;;;;;18.33;29.01;99690.16;4916690;29;20233;-84
2021/03/26 15:45:41;;;;;;;12.77;8.77;;;;;;;18.12;29.21;99675.72;4905262;29;20322;-84
2021/03/26 15:48:44;;;;;;;13.40;8.47;;;;;;;18.01;29.38;99669.47;4880016;29;20343;-84
2021/03/26 15:51:59;;;;;;;13.37;8.90;;;;;;;17.85;29.77;99667.81;4902784;29;20253;-84
2021/03/26 15:54:57;;;;;;;14.33;8.60;;;;;;;17.85;29.99;99677.81;4906767;29;20241;-83
2021/03/26 15:58:16;;;;;;;12.37;8.37;;;;;;;17.71;30.13;99682.91;4898492;29;20238;-84
2021/03/26 16:01:12;;;;;;;14.73;8.33;;;;;;;17.60;30.49;99683.94;4851359;29;20226;-84
2021/03/26 16:04:21;;;;;;;13.97;8.50;;;;;;;17.45;30.60;99686.56;4884701;29;20235;-84
2021/03/26 16:07:31;;;;;;;12.03;8.47;;;;;;;17.31;31.28;99680.78;4848925;29;20643;-84
2021/03/26 16:10:39;;;;;;;13.33;8.03;;;;;;;17.22;30.73;99676.94;4892902;29;20230;-85
2021/03/26 16:14:01;;;;;;;11.63;8.00;;;;;;;17.16;31.06;99668.00;4869218;29;20243;-84
2021/03/26 16:16:53;;;;;;;12.17;9.50;;;;;;;16.99;31.18;99675.44;4887403;29;20711;-87
2021/03/26 16:19:53;;;;;;;14.63;9.40;;;;;;;16.87;31.32;99674.00;4891630;29;20227;-84
2021/03/26 16:23:00;;;;;;;34.77;31.67;;;;;;;16.78;32.00;99675.56;4877169;29;20657;-85
2021/03/26 16:25:50;;;;;;;21.67;18.43;;;;;;;16.64;31.85;99676.00;4890686;29;20266;-86
2021/03/26 16:28:56;;;;;;;21.10;16.90;;;;;;;16.54;32.16;99677.75;4896521;29;20231;-86
2021/03/26 16:31:57;;;;;;;73.33;53.13;;;;;;;16.42;32.54;99680.63;4882349;29;20297;-85
2021/03/26 16:35:04;;;;;;;64.97;47.73;;;;;;;16.15;33.01;99664.41;4899723;29;20334;-85
2021/03/26 16:38:13;;;;;;;63.00;48.23;;;;;;;16.03;33.45;99671.03;4888599;29;20238;-86
2021/03/26 16:41:27;;;;;;;25.23;18.90;;;;;;;16.00;33.76;99676.97;4915255;29;20234;-85